Aeroporto :
LOGIN :

Iscrizione | Disclaimer

   EN    FR    IT 

 










Sommario :    VFR   VFR Marginale   IFR   IFR Intensivo   IFR Molto Intensivo
Visibilità : 
Base nubi : 
>= 8 km
>= 3000ft
5 / 8 km
1000 / 3000 ft
1500m / 5 km
500 / 1000 ft
800 / 1500m
200 / 500 ft
< 800m
< 200 ft
Simboli :   Temporali  Nebbia  Neve Forte  Precipitazioni Forti  Vento > 20 kt
SIGMETs :   Varie  Temporali  Ghiacco  Turbolenza  Onda orograficha  Ceneri Vulcaniche






- Altitudine del aeroporto : 510 ft


LJCE - Cerklje

ULTIMO METAR :
  • 190300Z AUTO VRB03KT 9999 NSC 06/04 Q1024

METARs OBSOLETI :
  • 190230Z AUTO VRB01KT 9999 NSC 06/04 Q1024
  • 190200Z AUTO VRB02KT 9999 NSC 06/04 Q1024
  • 190130Z AUTO VRB02KT 9999 SCT045/// BKN059/// BKN087/// 05/04 Q1025
  • 190100Z AUTO VRB01KT 9999 BKN044/// BKN086/// 05/05 Q1025
  • 190030Z AUTO 00000KT 9000 FEW047/// BKN100/// 04/04 Q1025

TAF TAF LJCE
Valido dal 19 a 03 ore il 19 a 12 ore UTC


190200Z 1903/1912 VRB02KT 9999 FEW030 BKN080
BECMG 1903/1905 09005KT
BECMG 1907/1909 CAVOK



MetMap, La meteo Aeronautica in un colpo d'occhio ! - Copyright ORBIFLY Dicembre 2007 - Disclaimer

ORBIFLY MET'MAP TEAM :

Programmazione e sviluppo : Alexandra Zaïnal
Concezione : Baudouin d'Aumeries
Aiuto per la programmazione : Marc-Olivier Méhu
Supporto tecnico e logistico : Manuel Goepfert
Aiuto per la traduzione : Arnaldo La Scala

Contatto : metmap@orbifly.com




FONTI E CREDITI :

   NOAA